createdAt,value
2019-01-25T00:01:29.369Z,10.20
2019-01-25T00:03:59.795Z,10.20
2019-01-25T00:06:30.214Z,10.20
2019-01-25T00:09:00.618Z,10.20
2019-01-25T00:11:31.083Z,10.20
2019-01-25T00:14:01.494Z,10.20
2019-01-25T00:16:31.922Z,10.30
2019-01-25T00:19:02.665Z,10.20
2019-01-25T00:21:33.091Z,10.20
2019-01-25T00:24:03.583Z,10.20
2019-01-25T00:26:34.039Z,10.20
2019-01-25T00:29:04.582Z,10.20
2019-01-25T00:31:34.995Z,10.20
2019-01-25T00:34:05.803Z,10.20
2019-01-25T00:36:36.369Z,10.20
2019-01-25T00:39:08.745Z,10.20
2019-01-25T00:41:39.274Z,10.20
2019-01-25T00:44:09.689Z,10.30
2019-01-25T00:46:40.293Z,10.30
2019-01-25T00:49:10.758Z,10.30
2019-01-25T00:51:41.186Z,10.30
2019-01-25T00:54:11.622Z,10.30
2019-01-25T00:56:42.348Z,10.40
2019-01-25T00:59:12.774Z,10.30
2019-01-25T01:01:43.201Z,10.40
2019-01-25T01:04:13.618Z,10.40
2019-01-25T01:06:44.260Z,10.30
2019-01-25T01:09:14.882Z,10.30
2019-01-25T01:11:45.428Z,10.30
2019-01-25T01:14:15.849Z,10.40
2019-01-25T01:16:46.265Z,10.40
2019-01-25T01:19:16.775Z,10.40
2019-01-25T01:21:47.238Z,10.40
2019-01-25T01:24:17.670Z,10.40
2019-01-25T01:26:48.242Z,10.40
2019-01-25T01:29:18.717Z,10.40
2019-01-25T01:31:49.133Z,10.40
2019-01-25T01:34:19.570Z,10.40
2019-01-25T01:36:50.037Z,10.40
2019-01-25T01:39:20.489Z,10.40
2019-01-25T01:41:50.979Z,10.40
2019-01-25T01:44:21.386Z,10.40
2019-01-25T01:46:51.810Z,10.40
2019-01-25T01:49:23.372Z,10.40
2019-01-25T01:51:53.798Z,10.40
2019-01-25T01:54:24.216Z,10.40
2019-01-25T01:56:54.642Z,10.40
2019-01-25T01:59:25.102Z,10.40
2019-01-25T02:01:55.606Z,10.40
2019-01-25T02:04:26.031Z,10.50
2019-01-25T02:06:56.443Z,10.40
2019-01-25T02:09:26.870Z,10.50
2019-01-25T02:11:57.309Z,10.50
2019-01-25T02:14:27.733Z,10.50
2019-01-25T02:16:58.162Z,10.40
2019-01-25T02:19:29.615Z,10.40
2019-01-25T02:22:10.897Z,10.40
2019-01-25T02:24:41.466Z,10.50
2019-01-25T02:27:12.067Z,10.40
2019-01-25T02:29:42.894Z,10.50
2019-01-25T02:32:13.318Z,10.50
2019-01-25T02:34:43.746Z,10.50
2019-01-25T02:37:14.172Z,10.50
2019-01-25T02:39:44.546Z,10.40
2019-01-25T02:42:15.237Z,10.50
2019-01-25T02:44:45.659Z,10.50
2019-01-25T02:47:16.289Z,10.50
2019-01-25T02:49:46.726Z,10.50
2019-01-25T02:52:17.146Z,10.40
2019-01-25T02:54:47.618Z,10.30
2019-01-25T02:57:18.101Z,10.40
2019-01-25T02:59:48.538Z,10.40
2019-01-25T03:02:18.998Z,10.40
2019-01-25T03:04:49.474Z,10.40
2019-01-25T03:07:19.935Z,10.40
2019-01-25T03:10:10.177Z,10.40
2019-01-25T03:12:40.676Z,10.30
2019-01-25T03:15:14.715Z,10.30
2019-01-25T03:17:45.337Z,10.40
2019-01-25T03:20:16.454Z,10.40
2019-01-25T03:22:47.152Z,10.40
2019-01-25T03:25:22.539Z,10.40
2019-01-25T03:27:53.228Z,10.50
2019-01-25T03:30:24.340Z,10.40
2019-01-25T03:32:55.049Z,10.40
2019-01-25T03:35:26.815Z,10.40
2019-01-25T03:37:57.567Z,10.40
2019-01-25T03:40:30.789Z,10.40
2019-01-25T03:43:01.217Z,10.40
2019-01-25T03:45:31.634Z,10.40
2019-01-25T03:48:02.173Z,10.50
2019-01-25T03:50:32.850Z,10.50
2019-01-25T03:53:03.336Z,10.50
2019-01-25T03:55:34.486Z,10.50
2019-01-25T03:58:05.212Z,10.50
2019-01-25T04:00:35.643Z,10.50
2019-01-25T04:03:06.168Z,10.50
2019-01-25T04:05:36.648Z,10.50
2019-01-25T04:08:07.435Z,10.50
2019-01-25T04:10:37.925Z,10.50
2019-01-25T04:13:08.535Z,10.50
2019-01-25T04:15:39.114Z,10.50
2019-01-25T04:18:09.563Z,10.50
2019-01-25T04:20:39.983Z,10.40
2019-01-25T04:23:10.598Z,10.40
2019-01-25T04:25:41.035Z,10.50
2019-01-25T04:28:11.463Z,10.50
2019-01-25T04:30:42.096Z,10.50
2019-01-25T04:33:12.663Z,10.60
2019-01-25T04:35:43.200Z,10.60
2019-01-25T04:38:13.683Z,10.60
2019-01-25T04:40:44.097Z,10.60
2019-01-25T04:43:14.642Z,10.60
2019-01-25T04:45:44.987Z,10.60
2019-01-25T04:48:16.465Z,10.60
2019-01-25T04:50:46.947Z,10.60
2019-01-25T04:53:17.374Z,10.50
2019-01-25T04:55:47.803Z,10.50
2019-01-25T04:58:20.991Z,10.50
2019-01-25T05:00:51.621Z,10.50
2019-01-25T05:03:22.054Z,10.50
2019-01-25T05:05:52.547Z,10.50
2019-01-25T05:08:23.487Z,10.50
2019-01-25T05:10:53.951Z,10.50
2019-01-25T05:13:24.486Z,10.50
2019-01-25T05:15:55.121Z,10.50
2019-01-25T05:18:44.993Z,10.50
2019-01-25T05:21:23.496Z,10.50
2019-01-25T05:23:54.343Z,10.40
2019-01-25T05:26:24.770Z,10.50
2019-01-25T05:28:55.610Z,10.50
2019-01-25T05:31:28.741Z,10.50
2019-01-25T05:33:59.538Z,10.50
2019-01-25T05:36:29.959Z,10.50
2019-01-25T05:39:00.533Z,10.50
2019-01-25T05:41:31.121Z,10.50
2019-01-25T05:44:01.583Z,10.50
2019-01-25T05:46:32.065Z,10.50
2019-01-25T05:49:02.519Z,10.50
2019-01-25T05:51:33.667Z,10.50
2019-01-25T05:54:04.585Z,10.50
2019-01-25T05:56:36.375Z,10.50
2019-01-25T05:59:06.994Z,10.50
2019-01-25T06:01:40.322Z,10.50
2019-01-25T06:04:10.800Z,10.50
2019-01-25T06:06:41.226Z,10.50
2019-01-25T06:09:11.654Z,10.50
2019-01-25T06:11:42.127Z,10.50
2019-01-25T06:14:15.215Z,10.50
2019-01-25T06:16:45.703Z,10.50
2019-01-25T06:19:16.338Z,10.50
2019-01-25T06:21:46.902Z,10.50
2019-01-25T06:24:17.494Z,10.50
2019-01-25T06:26:48.025Z,10.50
2019-01-25T06:29:19.535Z,10.40
2019-01-25T06:31:50.050Z,10.40
2019-01-25T06:34:20.530Z,10.50
2019-01-25T06:36:51.164Z,10.50
2019-01-25T06:39:21.589Z,10.50
2019-01-25T06:41:52.162Z,10.50
2019-01-25T06:44:22.699Z,10.50
2019-01-25T06:46:53.184Z,10.50
2019-01-25T06:49:23.808Z,10.50
2019-01-25T06:51:54.236Z,10.50
2019-01-25T06:54:24.669Z,10.50
2019-01-25T06:56:55.081Z,10.50
2019-01-25T06:59:30.181Z,10.50
2019-01-25T07:02:13.050Z,10.50
2019-01-25T07:05:02.315Z,10.50
2019-01-25T07:07:34.942Z,10.50
2019-01-25T07:10:06.803Z,10.50
2019-01-25T07:12:37.351Z,10.50
2019-01-25T07:15:08.926Z,10.40
2019-01-25T07:17:39.467Z,10.50
2019-01-25T07:20:12.352Z,10.50
2019-01-25T07:22:42.788Z,10.50
2019-01-25T07:25:13.605Z,10.50
2019-01-25T07:27:44.041Z,10.40
2019-01-25T07:30:14.931Z,10.40
2019-01-25T07:32:45.406Z,10.40
2019-01-25T07:35:16.138Z,10.40
2019-01-25T07:37:46.573Z,10.40
2019-01-25T07:40:17.102Z,10.40
2019-01-25T07:42:47.606Z,10.40
2019-01-25T07:45:18.504Z,10.40
2019-01-25T07:47:48.993Z,10.40
2019-01-25T07:50:19.523Z,10.40
2019-01-25T07:52:50.019Z,10.40
2019-01-25T07:55:20.480Z,10.40
2019-01-25T07:57:50.908Z,10.50
2019-01-25T08:00:21.510Z,10.50
2019-01-25T08:02:52.071Z,10.40
2019-01-25T08:05:22.667Z,10.50
2019-01-25T08:07:53.331Z,10.50
2019-01-25T08:10:23.750Z,10.50
2019-01-25T08:12:54.186Z,10.50
2019-01-25T08:15:25.035Z,10.60
2019-01-25T08:17:55.573Z,10.60
2019-01-25T08:20:26.036Z,10.60
2019-01-25T08:22:56.558Z,10.60
2019-01-25T08:25:27.243Z,10.60
2019-01-25T08:27:58.694Z,10.60
2019-01-25T08:30:29.125Z,10.70
2019-01-25T08:32:59.753Z,10.60
2019-01-25T08:35:30.205Z,10.70
2019-01-25T08:38:00.782Z,10.70
2019-01-25T08:40:31.232Z,10.70
2019-01-25T08:43:01.691Z,10.70
2019-01-25T08:45:32.107Z,10.70
2019-01-25T08:48:02.700Z,10.70
2019-01-25T08:50:33.449Z,10.70
2019-01-25T08:53:04.119Z,10.70
2019-01-25T08:55:34.821Z,10.80
2019-01-25T08:58:05.471Z,10.80
2019-01-25T09:00:35.975Z,10.80
2019-01-25T09:03:06.756Z,10.80
2019-01-25T09:05:37.146Z,10.80
2019-01-25T09:08:07.783Z,10.90
2019-01-25T09:10:38.174Z,11.10
2019-01-25T09:13:08.621Z,11.30
2019-01-25T09:15:39.264Z,11.40
2019-01-25T09:18:09.839Z,11.60
2019-01-25T09:20:40.310Z,11.60
2019-01-25T09:23:10.750Z,11.60
2019-01-25T09:25:41.371Z,11.60
2019-01-25T09:28:11.991Z,11.60
2019-01-25T09:30:42.544Z,11.60
2019-01-25T09:33:13.063Z,11.60
2019-01-25T09:35:43.491Z,11.60
2019-01-25T09:38:13.926Z,11.70
2019-01-25T09:40:44.446Z,11.70
2019-01-25T09:43:15.087Z,11.70
2019-01-25T09:45:45.521Z,11.70
2019-01-25T09:48:16.964Z,11.70
2019-01-25T09:50:52.685Z,11.60
2019-01-25T09:53:19.652Z,11.50
2019-01-25T09:55:50.088Z,11.60
2019-01-25T09:58:20.822Z,11.50
2019-01-25T10:01:03.381Z,11.40
2019-01-25T10:03:33.863Z,11.50
2019-01-25T10:06:04.294Z,11.50
2019-01-25T10:08:34.818Z,11.50
2019-01-25T10:11:05.783Z,11.60
2019-01-25T10:13:39.017Z,11.80
2019-01-25T10:16:09.479Z,11.90
2019-01-25T10:18:39.907Z,11.90
2019-01-25T10:21:10.390Z,12.00
2019-01-25T10:23:40.863Z,11.90
2019-01-25T10:26:11.509Z,12.00
2019-01-25T10:28:42.032Z,12.00
2019-01-25T10:31:12.542Z,12.10
2019-01-25T10:33:42.980Z,12.10
2019-01-25T10:36:13.406Z,12.10
2019-01-25T10:38:44.040Z,12.20
2019-01-25T10:41:14.469Z,12.30
2019-01-25T10:43:44.968Z,12.20
2019-01-25T10:46:15.432Z,12.10
2019-01-25T10:48:45.942Z,12.20
2019-01-25T10:51:16.480Z,12.50
2019-01-25T10:53:46.965Z,12.70
2019-01-25T10:56:17.441Z,12.80
2019-01-25T10:58:47.854Z,12.80
2019-01-25T11:01:18.282Z,12.80
2019-01-25T11:03:48.721Z,12.70
2019-01-25T11:06:19.214Z,12.60
2019-01-25T11:08:49.738Z,12.60
2019-01-25T11:11:20.250Z,12.60
2019-01-25T11:13:50.734Z,12.60
2019-01-25T11:16:21.162Z,12.80
2019-01-25T11:18:51.794Z,12.80
2019-01-25T11:21:22.220Z,12.90
2019-01-25T11:23:53.127Z,13.00
2019-01-25T11:26:23.937Z,13.10
2019-01-25T11:28:54.410Z,13.10
2019-01-25T11:31:24.838Z,13.10
2019-01-25T11:33:55.450Z,13.10
2019-01-25T11:36:25.930Z,13.10
2019-01-25T11:38:56.438Z,13.00
2019-01-25T11:41:26.855Z,12.90
2019-01-25T11:43:57.283Z,12.90
2019-01-25T11:46:27.617Z,13.00
2019-01-25T11:48:58.045Z,13.20
2019-01-25T11:51:28.462Z,13.60
2019-01-25T11:53:58.898Z,14.10
2019-01-25T11:56:29.324Z,14.50
2019-01-25T11:58:59.793Z,14.50
2019-01-25T12:01:30.487Z,14.40
2019-01-25T12:04:00.944Z,14.20
2019-01-25T12:06:31.441Z,13.90
2019-01-25T12:09:01.982Z,14.00
2019-01-25T12:11:32.533Z,14.20
2019-01-25T12:14:03.029Z,14.50
2019-01-25T12:16:33.482Z,14.60
2019-01-25T12:19:06.173Z,14.50
2019-01-25T12:21:36.871Z,14.40
2019-01-25T12:24:07.707Z,14.20
2019-01-25T12:26:38.340Z,14.00
2019-01-25T12:29:09.840Z,13.70
2019-01-25T12:31:40.421Z,13.20
2019-01-25T12:34:10.850Z,13.00
2019-01-25T12:36:41.269Z,13.10
2019-01-25T12:39:12.009Z,13.10
2019-01-25T12:41:42.427Z,13.20
2019-01-25T12:44:13.173Z,13.60
2019-01-25T12:46:43.579Z,13.80
2019-01-25T12:49:14.027Z,13.90
2019-01-25T12:51:58.599Z,13.90
2019-01-25T12:54:29.113Z,14.00
2019-01-25T12:56:59.609Z,13.90
2019-01-25T12:59:30.093Z,13.80
2019-01-25T13:02:00.834Z,13.80
2019-01-25T13:04:31.336Z,13.60
2019-01-25T13:07:01.750Z,13.50
2019-01-25T13:09:32.250Z,13.50
2019-01-25T13:12:02.831Z,13.40
2019-01-25T13:14:52.088Z,13.50
2019-01-25T13:17:22.637Z,13.60
2019-01-25T13:19:53.167Z,13.60
2019-01-25T13:22:23.667Z,13.60
2019-01-25T13:24:54.102Z,13.60
2019-01-25T13:27:24.721Z,13.50
2019-01-25T13:29:55.164Z,13.50
2019-01-25T13:32:25.839Z,13.50
2019-01-25T13:34:56.310Z,13.70
2019-01-25T13:37:31.325Z,13.90
2019-01-25T13:39:59.120Z,14.00
2019-01-25T13:42:29.643Z,14.00
2019-01-25T13:45:00.087Z,13.80
2019-01-25T13:47:30.710Z,13.70
2019-01-25T13:50:01.187Z,13.70
2019-01-25T13:52:31.769Z,13.50
2019-01-25T13:55:02.196Z,13.60
2019-01-25T13:57:32.826Z,13.50
2019-01-25T14:00:03.365Z,13.60
2019-01-25T14:02:34.229Z,13.60
2019-01-25T14:05:05.214Z,13.70
2019-01-25T14:07:35.661Z,13.80
2019-01-25T14:10:08.490Z,14.20
2019-01-25T14:12:38.872Z,14.40
2019-01-25T14:15:09.977Z,14.30
2019-01-25T14:17:40.508Z,14.50
2019-01-25T14:20:14.529Z,14.70
2019-01-25T14:22:45.192Z,14.70
2019-01-25T14:25:15.706Z,14.60
2019-01-25T14:27:46.441Z,14.30
2019-01-25T14:30:26.669Z,14.20
2019-01-25T14:32:57.126Z,13.80
2019-01-25T14:35:27.718Z,13.70
2019-01-25T14:37:58.198Z,13.60
2019-01-25T14:40:28.642Z,13.40
2019-01-25T14:42:59.049Z,13.40
2019-01-25T14:45:29.990Z,13.50
2019-01-25T14:48:01.745Z,13.40
2019-01-25T14:50:32.779Z,13.40
2019-01-25T14:53:03.409Z,13.30
2019-01-25T14:55:33.877Z,13.30
2019-01-25T14:58:04.978Z,13.20
2019-01-25T15:00:35.715Z,13.30
2019-01-25T15:03:06.398Z,13.20
2019-01-25T15:05:36.885Z,13.30
2019-01-25T15:08:07.463Z,13.40
2019-01-25T15:10:37.944Z,13.50
2019-01-25T15:13:09.170Z,13.50
2019-01-25T15:15:39.616Z,13.50
2019-01-25T15:18:10.110Z,13.50
2019-01-25T15:20:40.620Z,13.70
2019-01-25T15:23:11.126Z,13.70
2019-01-25T15:25:41.551Z,13.70
2019-01-25T15:28:12.162Z,13.80
2019-01-25T15:30:42.691Z,14.00
2019-01-25T15:33:13.107Z,14.50
2019-01-25T15:36:02.489Z,14.50
2019-01-25T15:38:34.086Z,14.10
2019-01-25T15:41:04.882Z,14.00
2019-01-25T15:43:35.306Z,13.80
2019-01-25T15:46:05.910Z,13.70
2019-01-25T15:48:36.365Z,13.60
2019-01-25T15:51:06.928Z,13.50
2019-01-25T15:53:37.322Z,13.10
2019-01-25T15:56:08.104Z,12.90
2019-01-25T15:58:38.591Z,12.70
2019-01-25T16:01:09.113Z,12.70
2019-01-25T16:03:39.541Z,12.70
2019-01-25T16:06:09.865Z,12.60
2019-01-25T16:08:40.293Z,12.60
2019-01-25T16:11:10.766Z,12.40
2019-01-25T16:13:41.317Z,12.30
2019-01-25T16:16:11.955Z,12.20
2019-01-25T16:18:42.411Z,12.10
2019-01-25T16:21:12.839Z,12.00
2019-01-25T16:23:43.291Z,12.00
2019-01-25T16:26:13.727Z,11.90
2019-01-25T16:28:45.310Z,11.80
2019-01-25T16:31:15.841Z,11.70
2019-01-25T16:33:46.370Z,11.60
2019-01-25T16:36:16.822Z,11.50
2019-01-25T16:38:47.362Z,11.40
2019-01-25T16:41:18.065Z,11.30
2019-01-25T16:43:48.526Z,11.30
2019-01-25T16:46:18.941Z,11.30
2019-01-25T16:48:49.379Z,11.40
2019-01-25T16:51:19.804Z,11.40
2019-01-25T16:53:50.235Z,11.50
2019-01-25T16:56:20.659Z,11.40
2019-01-25T16:58:52.110Z,11.40
2019-01-25T17:01:22.526Z,11.40
2019-01-25T17:03:52.964Z,11.40
2019-01-25T17:06:23.595Z,11.40
2019-01-25T17:08:54.028Z,11.40
2019-01-25T17:11:24.451Z,11.30
2019-01-25T17:13:54.923Z,11.30
2019-01-25T17:16:25.406Z,11.30
2019-01-25T17:18:55.858Z,11.30
2019-01-25T17:21:26.362Z,11.20
2019-01-25T17:23:56.788Z,11.10
2019-01-25T17:26:27.218Z,11.10
2019-01-25T17:28:57.654Z,11.10
2019-01-25T17:31:28.172Z,11.10
2019-01-25T17:33:58.618Z,11.20
2019-01-25T17:36:48.074Z,11.20
2019-01-25T17:39:19.112Z,11.10
2019-01-25T17:41:49.543Z,11.10
2019-01-25T17:44:20.015Z,11.20
2019-01-25T17:46:50.606Z,11.10
2019-01-25T17:49:20.994Z,11.10
2019-01-25T17:51:51.602Z,11.10
2019-01-25T17:54:22.085Z,11.10
2019-01-25T17:56:52.502Z,11.10
2019-01-25T17:59:22.939Z,11.10
2019-01-25T18:01:53.367Z,11.10
2019-01-25T18:04:23.860Z,11.00
2019-01-25T18:06:54.393Z,11.00
2019-01-25T18:09:24.856Z,11.00
2019-01-25T18:11:55.270Z,11.10
2019-01-25T18:14:25.693Z,11.10
2019-01-25T18:16:56.441Z,11.10
2019-01-25T18:19:26.871Z,11.00
2019-01-25T18:21:57.293Z,11.00
2019-01-25T18:24:27.726Z,11.00
2019-01-25T18:26:58.149Z,10.90
2019-01-25T18:29:56.529Z,11.00
2019-01-25T18:32:27.206Z,10.90
2019-01-25T18:34:57.682Z,10.90
2019-01-25T18:37:28.224Z,10.90
2019-01-25T18:39:58.853Z,10.90
2019-01-25T18:42:29.311Z,10.90
2019-01-25T18:45:18.553Z,10.90
2019-01-25T18:47:50.147Z,10.90
2019-01-25T18:50:20.810Z,10.90
2019-01-25T18:52:51.263Z,10.90
2019-01-25T18:55:22.758Z,10.90
2019-01-25T18:57:53.194Z,10.80
2019-01-25T19:00:23.894Z,10.80
2019-01-25T19:02:54.302Z,10.80
2019-01-25T19:05:24.822Z,10.90
2019-01-25T19:07:55.259Z,10.90
2019-01-25T19:10:26.549Z,10.90
2019-01-25T19:12:57.033Z,10.90
2019-01-25T19:15:28.943Z,10.80
2019-01-25T19:17:59.427Z,10.80
2019-01-25T19:20:29.897Z,10.80
2019-01-25T19:23:00.381Z,10.80
2019-01-25T19:25:30.810Z,10.80
2019-01-25T19:28:01.252Z,10.80
2019-01-25T19:30:34.546Z,10.80
2019-01-25T19:33:05.578Z,10.80
2019-01-25T19:35:36.202Z,10.70
2019-01-25T19:38:07.596Z,10.70
2019-01-25T19:40:38.080Z,10.70
2019-01-25T19:43:29.398Z,10.70
2019-01-25T19:45:59.984Z,10.70
2019-01-25T19:48:30.558Z,10.60
2019-01-25T19:51:01.054Z,10.70
2019-01-25T19:53:31.507Z,10.60
2019-01-25T19:56:01.936Z,10.50
2019-01-25T19:58:32.368Z,10.50
2019-01-25T20:01:02.964Z,10.40
2019-01-25T20:03:33.426Z,10.20
2019-01-25T20:06:04.268Z,10.10
2019-01-25T20:08:34.692Z,10.10
2019-01-25T20:11:05.221Z,10.10
2019-01-25T20:13:35.648Z,10.10
2019-01-25T20:16:06.654Z,10.00
2019-01-25T20:18:37.251Z,10.10
2019-01-25T20:21:07.751Z,10.10
2019-01-25T20:23:38.226Z,10.10
2019-01-25T20:26:08.807Z,10.10
2019-01-25T20:28:39.458Z,10.10
2019-01-25T20:31:28.810Z,10.10
2019-01-25T20:34:12.046Z,10.10
2019-01-25T20:37:01.306Z,10.10
2019-01-25T20:39:31.879Z,10.20
2019-01-25T20:42:02.395Z,10.10
2019-01-25T20:44:32.958Z,10.20
2019-01-25T20:47:03.450Z,10.20
2019-01-25T20:49:33.958Z,10.10
2019-01-25T20:52:04.386Z,10.10
2019-01-25T20:54:35.124Z,10.00
2019-01-25T20:57:05.632Z,10.10
2019-01-25T20:59:36.096Z,10.10
2019-01-25T21:02:07.631Z,10.00
2019-01-25T21:04:38.038Z,10.00
2019-01-25T21:07:08.580Z,9.90
2019-01-25T21:09:39.006Z,9.90
2019-01-25T21:12:09.434Z,9.90
2019-01-25T21:15:00.035Z,9.90
2019-01-25T21:17:30.594Z,9.80
2019-01-25T21:20:12.445Z,9.80
2019-01-25T21:22:42.987Z,9.80
2019-01-25T21:25:13.912Z,9.70
2019-01-25T21:27:45.535Z,9.70
2019-01-25T21:30:18.617Z,9.60
2019-01-25T21:32:49.102Z,9.60
2019-01-25T21:35:20.861Z,9.60
2019-01-25T21:37:52.931Z,9.60
2019-01-25T21:40:25.354Z,9.60
2019-01-25T21:42:56.133Z,9.60
2019-01-25T21:45:28.983Z,9.60
2019-01-25T21:48:02.087Z,9.60
2019-01-25T21:50:34.933Z,9.60
2019-01-25T21:53:05.581Z,9.60
2019-01-25T21:55:36.143Z,9.60
2019-01-25T21:58:06.960Z,9.60
2019-01-25T22:00:37.717Z,9.60
2019-01-25T22:03:08.460Z,9.60
2019-01-25T22:05:39.098Z,9.50
2019-01-25T22:08:09.898Z,9.50
2019-01-25T22:10:43.986Z,9.50
2019-01-25T22:13:14.766Z,9.60
2019-01-25T22:15:50.686Z,9.60
2019-01-25T22:18:17.680Z,9.60
2019-01-25T22:20:48.237Z,9.60
2019-01-25T22:23:18.850Z,9.60
2019-01-25T22:25:49.333Z,9.50
2019-01-25T22:28:19.799Z,9.50
2019-01-25T22:30:50.227Z,9.50
2019-01-25T22:33:20.862Z,9.40
2019-01-25T22:35:51.626Z,9.40
2019-01-25T22:38:22.228Z,9.40
2019-01-25T22:40:52.952Z,9.40
2019-01-25T22:43:23.380Z,9.40
2019-01-25T22:45:58.513Z,9.40
2019-01-25T22:48:26.078Z,9.40
2019-01-25T22:50:56.547Z,9.40
2019-01-25T22:53:27.292Z,9.40
2019-01-25T22:55:59.287Z,9.40
2019-01-25T22:58:29.851Z,9.40
2019-01-25T23:01:27.013Z,9.40
2019-01-25T23:04:43.290Z,9.40
2019-01-25T23:07:16.850Z,9.40
2019-01-25T23:09:53.730Z,9.40
2019-01-25T23:12:24.196Z,9.40
2019-01-25T23:14:54.615Z,9.50
2019-01-25T23:17:25.052Z,9.50
2019-01-25T23:19:55.466Z,9.50
2019-01-25T23:22:25.904Z,9.50
2019-01-25T23:24:56.331Z,9.50
2019-01-25T23:27:26.903Z,9.50
2019-01-25T23:29:57.377Z,9.50
2019-01-25T23:32:27.805Z,9.50
2019-01-25T23:34:58.245Z,9.50
2019-01-25T23:37:28.773Z,9.50
2019-01-25T23:39:59.187Z,9.50
2019-01-25T23:42:29.613Z,9.50
2019-01-25T23:45:00.044Z,9.50
2019-01-25T23:47:30.569Z,9.50
2019-01-25T23:50:00.997Z,9.50
2019-01-25T23:52:31.436Z,9.40
2019-01-25T23:55:01.864Z,9.50
2019-01-25T23:57:32.278Z,9.50
